Latest Weather Observations for Mackay

IDQ60801

Issued at 2:05 pm EST Saturday 19 April 2014 (issued every 30 minutes, with the page automatically refreshed every 10 minutes)

About weather observations | Map of weather stations | Latest weather observations for QLD | Other Formats
Station Details ID: 033119 Name: MACKAY M.O Lat: -21.12 Lon: 149.22 Height: 30.26 m
Data from the previous 72 hours. | See also: Recent months at Mackay
Date/Time
EST
Temp
°C
App
Temp
°C
Dew
Point
Rel
Hum
%
Delta-T
°C
Wind Press
QNH
hPa
Press
MSL
hPa
Rain
since 9 am
mm
Dir
 
Spd
km/h
Gust
km/h
Spd
kts
Gust
kts
19/01:30pm 27.2 28.8 20.0 64 4.7 ENE 11 15 6 8 1014.9 - 0.0
19/01:00pm 27.3 29.0 20.1 64 4.7 ENE 11 19 6 10 1015.3 1015.1 0.0
19/12:30pm 26.6 28.0 19.5 65 4.6 ENE 11 17 6 9 1015.7 - 0.0
19/12:00pm 26.4 28.0 19.1 64 4.7 ENE 9 17 5 9 1016.0 1015.8 0.0
19/11:37am 26.9 28.6 20.2 66 4.4 ENE 11 15 6 8 1016.3 - 0.0
19/11:30am 27.1 29.3 20.4 66 4.4 E 9 13 5 7 1016.4 - 0.0
19/11:00am 26.5 28.4 19.7 66 4.4 E 9 17 5 9 1016.8 1016.6 0.0
19/10:30am 26.0 27.8 19.5 67 4.2 E 9 13 5 7 1017.2 - 0.0
19/10:00am 25.9 27.8 19.0 65 4.4 ESE 7 11 4 6 1017.3 1017.1 0.0
19/09:30am 26.1 29.1 20.9 73 3.4 SSE 6 13 3 7 1017.3 - 0.0
19/09:00am 25.0 27.6 20.4 75 3.0 S 7 11 4 6 1017.3 1017.1 0.0
19/08:30am 23.5 26.2 20.6 84 1.9 SSW 7 11 4 6 1017.1 - 0.0
19/08:00am 22.2 23.8 20.0 87 1.4 SSW 11 15 6 8 1016.9 1016.7 0.0
19/07:30am 21.1 23.0 19.8 92 0.8 SW 9 13 5 7 1016.6 - 0.0
19/07:00am 20.1 21.4 19.3 95 0.5 SW 11 15 6 8 1016.7 1016.5 0.0
19/06:30am 19.9 21.1 19.1 95 0.5 SW 11 15 6 8 1016.4 - 0.0
19/06:00am 19.9 21.6 19.3 96 0.4 WSW 9 13 5 7 1016.1 1015.9 0.0
19/05:30am 19.8 21.1 19.2 96 0.4 SW 11 15 6 8 1015.9 - 0.0
19/05:00am 19.9 21.6 19.4 97 0.3 WSW 9 13 5 7 1015.6 1015.4 0.0
19/04:30am 20.0 21.8 19.5 97 0.3 SW 9 13 5 7 1015.5 - 0.0
19/04:00am 20.3 21.7 19.5 95 0.5 SW 11 15 6 8 1015.4 1015.2 0.0
19/03:30am 20.5 22.0 19.7 95 0.5 SW 11 15 6 8 1015.3 - 0.0
19/03:00am 20.8 22.8 20.0 95 0.5 SW 9 11 5 6 1015.3 1015.1 0.0
19/02:30am 20.8 22.8 20.0 95 0.5 SW 9 11 5 6 1015.6 - 0.0
19/02:00am 20.8 22.8 19.9 95 0.6 SW 9 11 5 6 1015.8 1015.6 0.0
19/01:30am 21.0 23.1 20.1 95 0.6 WSW 9 13 5 7 1016.0 - 0.0
19/01:00am 21.5 23.7 20.3 93 0.8 WSW 9 11 5 6 1016.2 1016.0 0.0
19/12:30am 21.6 24.1 20.2 92 0.9 SW 7 9 4 5 1016.6 - 0.0
19/12:00am 21.7 24.1 20.1 91 1.0 SW 7 9 4 5 1016.7 1016.5 0.0
 
Date/Time
EST
Temp
°C
App
Temp
°C
Dew
Point
Rel
Hum
%
Delta-T
°C
Wind Press
QNH
hPa
Press
MSL
hPa
Rain
since 9 am
mm
Dir
 
Spd
km/h
Gust
km/h
Spd
kts
Gust
kts
18/11:30pm 22.2 24.6 20.0 87 1.4 WSW 7 11 4 6 1016.7 - 0.0
18/11:00pm 22.5 24.9 20.0 86 1.6 NNW 7 9 4 5 1016.6 1016.4 0.0
18/10:30pm 23.0 25.3 19.9 83 2.0 NNW 7 11 4 6 1016.8 - 0.0
18/10:00pm 23.1 25.6 20.2 84 1.9 NNW 7 9 4 5 1016.8 1016.6 0.0
18/09:30pm 23.3 25.9 20.4 84 1.9 NNW 7 9 4 5 1016.7 - 0.0
18/09:00pm 23.2 25.9 20.7 86 1.6 NW 7 7 4 4 1016.7 1016.5 0.0
18/08:30pm 23.5 26.0 20.3 82 2.1 N 7 7 4 4 1016.5 - 0.0
18/08:00pm 23.7 26.3 20.0 80 2.4 N 6 9 3 5 1016.3 1016.1 0.0
18/07:30pm 23.9 26.4 19.9 78 2.6 N 6 7 3 4 1015.8 - 0.0
18/07:00pm 24.3 26.7 20.0 77 2.8 NNE 7 11 4 6 1015.4 1015.2 0.0
18/06:30pm 24.5 26.7 19.7 74 3.1 NNE 7 13 4 7 1015.1 - 0.0
18/06:00pm 24.5 26.6 20.2 77 2.8 NNE 9 15 5 8 1015.0 1014.8 0.0
18/05:30pm 24.7 27.0 19.9 74 3.1 NNE 7 13 4 7 1014.9 - 0.0
18/05:00pm 24.9 27.1 19.6 72 3.4 NE 7 13 4 7 1014.8 1014.6 0.0
18/04:30pm 25.6 27.7 20.1 71 3.6 ENE 9 17 5 9 1014.5 - 0.0
18/04:00pm 27.0 28.5 19.8 64 4.7 NE 11 17 6 9 1014.0 1013.8 0.0
18/03:30pm 26.6 28.1 19.8 66 4.4 ENE 11 19 6 10 1013.7 - 0.0
18/03:00pm 27.1 28.9 20.4 66 4.4 NE 11 19 6 10 1013.6 1013.4 0.0
18/02:30pm 27.4 29.5 20.1 64 4.8 NE 9 20 5 11 1013.8 - 0.0
18/02:00pm 27.6 29.2 19.9 63 5.0 NE 11 19 6 10 1014.0 1013.8 0.0
18/01:30pm 27.1 28.8 20.2 66 4.5 ENE 11 17 6 9 1014.2 - 0.0
18/01:00pm 27.0 27.9 19.3 62 5.0 ENE 13 20 7 11 1014.6 1014.4 0.0
18/12:30pm 27.4 29.2 20.4 65 4.6 ENE 11 17 6 9 1015.0 - 0.0
18/12:00pm 26.9 28.9 20.8 69 4.0 E 11 15 6 8 1015.5 1015.3 0.0
18/11:30am 27.1 29.6 21.1 69 4.0 E 9 13 5 7 1015.9 - 0.0
18/11:00am 26.4 28.9 21.1 72 3.5 E 9 13 5 7 1016.2 1016.0 0.0
18/10:30am 26.4 28.9 21.1 72 3.5 ESE 9 13 5 7 1016.6 - 0.0
18/10:00am 26.4 29.3 21.1 72 3.5 E 7 9 4 5 1016.7 1016.5 0.0
18/09:30am 25.7 28.2 20.3 72 3.5 E 7 9 4 5 1016.8 - 0.0
18/09:00am 25.1 28.0 21.0 78 2.7 SSW 7 9 4 5 1016.8 1016.6 0.0
18/08:30am 24.1 26.7 21.2 84 1.9 SW 9 13 5 7 1016.7 - 0.0
18/08:00am 22.1 24.4 20.7 92 0.9 SW 9 13 5 7 1016.6 1016.4 0.0
18/07:30am 21.7 24.0 20.6 93 0.7 SW 9 13 5 7 1016.5 - 0.0
18/07:00am 21.6 23.5 20.5 93 0.7 SW 11 15 6 8 1016.3 1016.1 0.0
18/06:30am 21.4 23.6 20.3 93 0.7 SW 9 11 5 6 1015.8 - 0.0
18/06:00am 21.3 23.8 20.2 93 0.7 SW 7 9 4 5 1015.6 1015.4 0.0
18/05:30am 21.7 24.9 20.5 93 0.8 WNW 4 7 2 4 1015.3 - 0.0
18/05:00am 21.4 23.9 20.2 93 0.8 SSW 7 7 4 4 1015.3 1015.1 0.0
18/04:30am 21.4 23.1 20.2 93 0.8 SW 11 13 6 7 1015.4 - 0.0
18/04:00am 21.2 22.6 20.4 95 0.5 SSW 13 15 7 8 1015.5 1015.3 0.0
18/03:30am 21.2 23.0 20.4 95 0.5 SW 11 15 6 8 1015.2 - 0.0
18/03:00am 21.2 23.6 20.1 93 0.7 SW 7 11 4 6 1015.2 1015.0 0.0
18/02:30am 21.1 23.3 20.3 95 0.5 WSW 9 11 5 6 1015.5 - 0.0
18/02:00am 21.4 23.6 20.5 95 0.6 SW 9 11 5 6 1015.7 1015.5 0.0
18/01:30am 22.1 24.8 20.2 89 1.2 N 6 9 3 5 1015.8 - 0.0
18/01:00am 22.3 25.0 20.3 88 1.3 N 6 7 3 4 1016.1 1015.9 0.0
18/12:30am 22.6 25.2 20.4 87 1.4 N 7 11 4 6 1016.4 - 0.0
18/12:00am 22.5 25.3 20.5 88 1.3 W 6 9 3 5 1016.7 1016.5 0.0
 
Date/Time
EST
Temp
°C
App
Temp
°C
Dew
Point
Rel
Hum
%
Delta-T
°C
Wind Press
QNH
hPa
Press
MSL
hPa
Rain
since 9 am
mm
Dir
 
Spd
km/h
Gust
km/h
Spd
kts
Gust
kts
17/11:30pm 22.9 26.8 20.4 86 1.6 CALM 0 0 0 0 1017.0 - 0.0
17/11:00pm 23.6 26.4 20.5 83 2.0 NNE 6 9 3 5 1017.0 1016.8 0.0
17/10:30pm 23.5 26.1 20.4 83 2.0 NNE 7 13 4 7 1017.1 - 0.0
17/10:00pm 23.4 25.3 19.8 80 2.3 NE 9 15 5 8 1017.0 1016.8 0.0
17/09:30pm 23.4 25.3 19.7 80 2.4 NE 9 13 5 7 1017.2 - 0.0
17/09:00pm 23.4 25.6 19.5 79 2.5 NE 7 11 4 6 1017.1 1016.9 0.0
17/08:30pm 23.2 25.5 19.8 81 2.2 NNE 7 11 4 6 1016.9 - 0.0
17/08:00pm 23.3 25.5 19.7 80 2.3 NE 7 11 4 6 1016.5 1016.3 0.0
17/07:30pm 23.2 25.5 19.9 82 2.1 NNE 7 13 4 7 1015.9 - 0.0
17/07:00pm 23.4 25.8 20.0 81 2.2 NE 7 11 4 6 1015.6 1015.4 0.0
17/06:30pm 24.0 26.4 20.0 78 2.6 ENE 7 11 4 6 1015.2 - 0.0
17/06:00pm 24.2 26.2 20.0 77 2.7 ENE 9 13 5 7 1014.9 1014.7 0.0
17/05:30pm 24.6 27.0 20.1 76 2.9 NE 7 13 4 7 1014.8 - 0.0
17/05:00pm 25.3 27.4 20.2 73 3.3 NE 9 13 5 7 1014.5 1014.3 0.0
17/04:30pm 25.4 27.6 20.3 73 3.3 NE 9 17 5 9 1014.5 - 0.0
17/04:00pm 26.0 28.9 21.0 74 3.3 NE 7 15 4 8 1014.4 1014.2 0.0
17/03:30pm 25.8 28.2 20.8 74 3.3 ENE 9 17 5 9 1014.5 - 0.0
17/03:00pm 25.9 27.8 20.6 72 3.5 ENE 11 19 6 10 1014.5 1014.3 0.0
17/02:30pm 26.5 28.1 20.7 70 3.8 ENE 13 17 7 9 1014.6 - 0.0
17/02:00pm 26.3 27.5 20.0 68 4.1 E 13 17 7 9 1014.9 1014.7 0.0
17/01:30pm 27.4 29.0 20.7 67 4.4 ENE 13 19 7 10 1015.1 - 0.0
17/01:00pm 27.5 29.1 20.8 67 4.4 ENE 13 20 7 11 1015.5 1015.3 0.0
17/12:30pm 26.9 28.0 19.7 64 4.7 E 13 19 7 10 1015.8 - 0.0
17/12:00pm 27.2 28.6 20.3 66 4.5 E 13 19 7 10 1016.2 1016.0 0.0
17/11:30am 27.5 29.5 21.5 70 4.0 E 13 19 7 10 1016.6 - 0.0
17/11:00am 27.3 28.9 20.8 67 4.3 E 13 19 7 10 1017.1 1016.9 0.0
17/10:30am 27.1 28.6 20.6 67 4.3 E 13 19 7 10 1017.5 - 0.0
17/10:00am 26.9 27.9 20.3 67 4.3 E 15 20 8 11 1017.7 1017.5 0.0
17/09:30am 25.8 29.0 21.7 78 2.7 SE 7 15 4 8 1017.5 - 0.0
17/09:00am 25.2 28.5 21.9 82 2.2 S 7 11 4 6 1017.3 1017.1 0.0
17/08:30am 24.9 27.7 21.6 82 2.2 SSW 9 13 5 7 1017.0 - 0.0
17/08:00am 23.7 26.2 21.1 85 1.7 SSW 9 13 5 7 1016.6 1016.4 0.0
17/07:30am 22.1 24.6 21.0 93 0.7 SW 9 13 5 7 1016.4 - 0.0
17/07:00am 21.2 23.1 20.6 96 0.4 SW 11 15 6 8 1016.1 1015.9 0.0
17/06:30am 21.0 23.2 20.5 97 0.3 SW 9 13 5 7 1015.8 - 0.0
17/06:00am 21.1 23.3 20.5 96 0.4 SW 9 11 5 6 1015.5 1015.3 0.0
17/05:30am 21.3 23.6 20.7 96 0.4 SW 9 11 5 6 1015.0 - 0.0
17/05:00am 21.6 23.9 20.7 95 0.6 SW 9 11 5 6 1014.8 1014.6 0.0
17/04:30am 21.8 24.3 21.0 95 0.5 SSW 9 11 5 6 1014.7 - 0.0
17/04:00am 22.0 24.8 20.9 93 0.7 SW 7 9 4 5 1014.7 1014.5 0.0
17/03:30am 22.0 24.4 20.9 93 0.7 SW 9 11 5 6 1014.5 - 0.0
17/03:00am 22.1 25.0 21.0 93 0.7 SW 7 9 4 5 1014.5 1014.3 0.0
17/02:30am 22.3 25.2 21.1 93 0.8 SW 7 9 4 5 1014.7 - 0.0
17/02:00am 22.6 25.5 21.1 91 1.0 SW 7 9 4 5 1014.8 1014.6 0.0
17/01:30am 22.6 25.1 21.1 91 1.0 WSW 9 9 5 5 1014.9 - 0.0
17/01:00am 22.6 25.5 21.1 91 1.0 WSW 7 9 4 5 1015.1 1014.9 0.0
17/12:30am 22.7 25.6 21.0 90 1.1 WSW 7 9 4 5 1015.4 - 0.0
17/12:00am 23.4 26.3 20.6 84 1.8 WNW 6 7 3 4 1015.3 1015.1 0.0
 
Date/Time
EST
Temp
°C
App
Temp
°C
Dew
Point
Rel
Hum
%
Delta-T
°C
Wind Press
QNH
hPa
Press
MSL
hPa
Rain
since 9 am
mm
Dir
 
Spd
km/h
Gust
km/h
Spd
kts
Gust
kts
16/11:30pm 24.0 26.8 20.5 81 2.3 NE 6 7 3 4 1015.3 - 0.0
16/11:00pm 23.9 26.2 19.9 78 2.6 NE 7 9 4 5 1015.5 1015.3 0.0
16/10:30pm 23.9 26.3 20.0 79 2.5 NE 7 9 4 5 1015.5 - 0.0
16/10:00pm 23.6 26.1 20.2 81 2.2 NE 7 11 4 6 1015.6 1015.4 0.0
16/09:30pm 23.4 25.9 20.3 83 2.0 NNE 7 15 4 8 1015.6 - 0.0
16/09:00pm 23.6 26.2 20.5 83 2.0 NE 7 11 4 6 1015.5 1015.3 0.0
16/08:30pm 23.9 26.4 20.2 80 2.4 NE 7 13 4 7 1015.3 - 0.0
16/08:00pm 24.0 26.0 20.0 78 2.6 NE 9 13 5 7 1015.1 1014.9 0.0
16/07:30pm 23.9 26.4 20.2 80 2.4 NE 7 13 4 7 1014.7 - 0.0
16/07:00pm 24.1 26.2 20.1 78 2.6 ENE 9 13 5 7 1014.3 1014.1 0.0
16/06:30pm 24.3 26.0 20.1 77 2.7 ENE 11 17 6 9 1013.8 - 0.0
16/06:00pm 24.6 25.5 20.1 76 2.9 E 15 20 8 11 1013.4 1013.2 0.0
16/05:30pm 25.1 26.6 20.5 75 3.0 E 13 20 7 11 1013.4 - 0.0
16/05:00pm 25.6 27.0 20.4 73 3.4 E 13 20 7 11 1013.3 1013.1 0.0
16/04:30pm 26.0 27.5 20.5 71 3.6 E 13 19 7 10 1013.0 - 0.0
16/04:00pm 26.2 27.8 20.7 71 3.6 E 13 19 7 10 1013.1 1012.9 0.0
16/03:30pm 26.8 28.9 20.9 70 3.9 ENE 11 19 6 10 1013.2 - 0.0
16/03:00pm 27.0 28.4 21.0 69 4.0 E 15 22 8 12 1013.2 1013.0 0.0
16/02:30pm 27.2 28.6 20.3 66 4.5 E 13 19 7 10 1013.3 - 0.0

Other Formats:

Comma delimited format used in spreadsheet applications
http://www.bom.gov.au/fwo/IDQ60801/IDQ60801.94367.axf

JavaScript Object Notation format (JSON) in row-major order
http://www.bom.gov.au/fwo/IDQ60801/IDQ60801.94367.json